Namsos, Namsos Airport (ENNM)

NameNamsos Airport
CityNamsos
CountryNorway
ICAOENNM
IATAOSY
Altitude2 m
CoordinatesGoogle Map
Live Air TrafficLiveATC.net
METARENNM 172050Z 08016KT 6000 -SN VV012 01/M00 Q1008
2019-02-17 20:50:00 Wind: East-Northeast (80°) 8.23 m/s - Visibility: 6000 m - Weather: Light Snow - Temperature: 1 °C - Dew point: -0 °C - Humidity: 93.1% - Pressure: 1008 hPa
Statistics

The table below shows the detailed information of all flights to/from Namsos, Namsos Airport (ENNM).